createdAt,value
2024-03-03T00:01:07.990Z,27.67
2024-03-03T00:03:36.910Z,33.67
2024-03-03T00:06:07.563Z,33.72
2024-03-03T00:08:35.047Z,29.88
2024-03-03T00:11:02.161Z,25.20
2024-03-03T00:13:30.708Z,22.90
2024-03-03T00:15:57.957Z,28.27
2024-03-03T00:18:25.038Z,23.10
2024-03-03T00:20:51.999Z,28.00
2024-03-03T00:23:19.090Z,27.70
2024-03-03T00:25:46.255Z,23.92
2024-03-03T00:28:13.307Z,32.90
2024-03-03T00:30:40.473Z,32.05
2024-03-03T00:33:07.945Z,26.88
2024-03-03T00:35:35.039Z,24.20
2024-03-03T00:38:02.022Z,27.60
2024-03-03T00:40:29.124Z,26.55
2024-03-03T00:42:56.174Z,28.17
2024-03-03T00:45:23.119Z,26.50
2024-03-03T00:47:50.177Z,27.33
2024-03-03T00:50:17.200Z,32.20
2024-03-03T00:52:44.189Z,28.70
2024-03-03T00:55:11.323Z,29.58
2024-03-03T00:57:38.434Z,28.73
2024-03-03T01:00:06.691Z,30.75
2024-03-03T01:02:33.788Z,31.48
2024-03-03T01:05:00.726Z,30.48
2024-03-03T01:07:27.786Z,30.95
2024-03-03T01:09:54.914Z,30.48
2024-03-03T01:12:21.904Z,28.48
2024-03-03T01:14:48.984Z,29.65
2024-03-03T01:17:16.033Z,31.65
2024-03-03T01:19:43.503Z,26.10
2024-03-03T01:22:10.881Z,26.73
2024-03-03T01:24:38.868Z,24.98
2024-03-03T01:27:06.002Z,28.13
2024-03-03T01:29:32.944Z,24.70
2024-03-03T01:32:00.038Z,33.90
2024-03-03T01:34:27.159Z,24.05
2024-03-03T01:36:54.358Z,31.25
2024-03-03T01:39:21.595Z,29.30
2024-03-03T01:41:49.045Z,30.23
2024-03-03T01:44:16.095Z,20.17
2024-03-03T01:46:43.668Z,31.65
2024-03-03T01:49:14.195Z,27.23
2024-03-03T01:51:42.104Z,25.23
2024-03-03T01:54:10.425Z,25.60
2024-03-03T01:56:39.899Z,25.30
2024-03-03T01:59:09.799Z,27.60
2024-03-03T02:01:38.454Z,29.23
2024-03-03T02:04:08.786Z,35.45
2024-03-03T02:06:36.302Z,36.83
2024-03-03T02:09:04.077Z,32.10
2024-03-03T02:11:31.070Z,29.05
2024-03-03T02:13:58.905Z,31.00
2024-03-03T02:16:26.200Z,21.95
2024-03-03T02:18:53.431Z,30.65
2024-03-03T02:21:25.149Z,28.60
2024-03-03T02:23:52.789Z,25.88
2024-03-03T02:26:23.469Z,30.40
2024-03-03T02:28:52.461Z,27.38
2024-03-03T02:31:20.147Z,24.75
2024-03-03T02:33:47.521Z,28.77
2024-03-03T02:36:14.672Z,27.17
2024-03-03T02:38:49.534Z,29.20
2024-03-03T02:41:16.509Z,30.98
2024-03-03T02:43:43.466Z,27.05
2024-03-03T02:46:10.616Z,26.95
2024-03-03T02:48:37.651Z,30.20
2024-03-03T02:51:04.690Z,24.83
2024-03-03T02:53:31.812Z,24.13
2024-03-03T02:55:58.727Z,24.00
2024-03-03T02:58:25.787Z,31.77
2024-03-03T03:00:52.882Z,27.98
2024-03-03T03:03:20.135Z,27.10
2024-03-03T03:05:47.461Z,24.90
2024-03-03T03:08:14.443Z,27.17
2024-03-03T03:10:41.534Z,31.30
2024-03-03T03:13:09.214Z,26.75
2024-03-03T03:15:37.376Z,26.90
2024-03-03T03:18:05.066Z,29.98
2024-03-03T03:20:32.710Z,31.25
2024-03-03T03:22:59.651Z,28.77
2024-03-03T03:25:26.735Z,26.33
2024-03-03T03:27:53.694Z,29.08
2024-03-03T03:30:20.999Z,24.80
2024-03-03T03:32:48.008Z,22.88
2024-03-03T03:35:15.010Z,24.92
2024-03-03T03:37:41.977Z,25.23
2024-03-03T03:40:12.591Z,24.50
2024-03-03T03:42:39.597Z,26.55
2024-03-03T03:45:07.155Z,25.95
2024-03-03T03:47:34.507Z,28.30
2024-03-03T03:50:01.693Z,26.25
2024-03-03T03:52:29.490Z,30.17
2024-03-03T03:54:56.532Z,28.35
2024-03-03T03:57:23.553Z,30.35
2024-03-03T03:59:50.556Z,26.63
2024-03-03T04:02:17.741Z,25.48
2024-03-03T04:04:44.671Z,23.75
2024-03-03T04:07:11.895Z,33.33
2024-03-03T04:09:39.093Z,23.45
2024-03-03T04:12:06.768Z,26.80
2024-03-03T04:14:34.850Z,25.13
2024-03-03T04:17:02.232Z,25.02
2024-03-03T04:19:29.216Z,26.85
2024-03-03T04:21:56.215Z,26.25
2024-03-03T04:24:23.195Z,24.08
2024-03-03T04:26:50.184Z,28.05
2024-03-03T04:29:17.516Z,25.60
2024-03-03T04:31:46.015Z,28.23
2024-03-03T04:34:13.255Z,20.38
2024-03-03T04:36:45.871Z,23.38
2024-03-03T04:39:13.835Z,22.90
2024-03-03T04:41:40.794Z,20.48
2024-03-03T04:44:07.865Z,25.13
2024-03-03T04:46:34.937Z,31.50
2024-03-03T04:49:02.009Z,22.27
2024-03-03T04:51:29.047Z,21.27
2024-03-03T04:53:56.738Z,26.42
2024-03-03T04:56:28.476Z,28.80
2024-03-03T04:58:55.594Z,28.77
2024-03-03T05:01:23.478Z,28.38
2024-03-03T05:03:51.321Z,21.00
2024-03-03T05:06:19.429Z,28.00
2024-03-03T05:08:46.527Z,30.48
2024-03-03T05:11:13.915Z,22.17
2024-03-03T05:13:40.872Z,25.83
2024-03-03T05:16:10.847Z,24.85
2024-03-03T05:18:37.770Z,27.33
2024-03-03T05:21:05.189Z,25.08
2024-03-03T05:23:33.408Z,24.33
2024-03-03T05:26:00.326Z,27.15
2024-03-03T05:28:28.535Z,25.58
2024-03-03T05:30:55.569Z,24.30
2024-03-03T05:33:22.721Z,25.52
2024-03-03T05:35:49.658Z,24.30
2024-03-03T05:38:16.675Z,25.65
2024-03-03T05:40:43.628Z,24.83
2024-03-03T05:43:10.642Z,26.85
2024-03-03T05:45:38.637Z,29.00
2024-03-03T05:48:06.239Z,28.80
2024-03-03T05:50:33.209Z,26.52
2024-03-03T05:53:00.231Z,25.52
2024-03-03T05:55:27.219Z,24.10
2024-03-03T05:57:54.937Z,26.75
2024-03-03T06:00:21.945Z,24.27
2024-03-03T06:02:48.897Z,30.50
2024-03-03T06:05:16.079Z,33.50
2024-03-03T06:07:43.154Z,30.45
2024-03-03T06:10:10.454Z,22.75
2024-03-03T06:12:37.473Z,23.45
2024-03-03T06:15:04.821Z,25.70
2024-03-03T06:17:31.773Z,23.55
2024-03-03T06:19:58.754Z,26.30
2024-03-03T06:22:25.682Z,31.60
2024-03-03T06:24:52.691Z,41.17
2024-03-03T06:27:19.589Z,38.85
2024-03-03T06:29:46.615Z,40.83
2024-03-03T06:32:13.974Z,36.00
2024-03-03T06:34:40.902Z,35.65
2024-03-03T06:37:07.891Z,32.45
2024-03-03T06:39:34.893Z,30.27
2024-03-03T06:42:01.896Z,31.77
2024-03-03T06:44:30.957Z,35.17
2024-03-03T06:46:59.359Z,31.35
2024-03-03T06:49:26.683Z,28.88
2024-03-03T06:51:53.692Z,34.58
2024-03-03T06:54:20.718Z,35.30
2024-03-03T06:56:47.661Z,29.60
2024-03-03T06:59:15.060Z,27.25
2024-03-03T07:01:42.099Z,23.38
2024-03-03T07:04:18.316Z,27.48
2024-03-03T07:06:45.471Z,24.05
2024-03-03T07:09:12.458Z,26.70
2024-03-03T07:11:39.481Z,23.35
2024-03-03T07:14:06.801Z,27.27
2024-03-03T07:16:33.989Z,29.38
2024-03-03T07:19:01.150Z,25.35
2024-03-03T07:21:30.514Z,30.50
2024-03-03T07:23:57.560Z,27.08
2024-03-03T07:26:24.702Z,29.67
2024-03-03T07:28:52.621Z,28.60
2024-03-03T07:31:20.057Z,27.70
2024-03-03T07:33:47.144Z,25.83
2024-03-03T07:36:14.137Z,28.63
2024-03-03T07:38:41.392Z,32.17
2024-03-03T07:41:08.381Z,28.90
2024-03-03T07:43:36.015Z,31.10
2024-03-03T07:46:03.028Z,24.00
2024-03-03T07:48:30.031Z,31.67
2024-03-03T07:50:56.995Z,30.23
2024-03-03T07:53:24.289Z,27.83
2024-03-03T07:55:51.304Z,34.15
2024-03-03T07:58:18.458Z,20.27
2024-03-03T08:00:45.805Z,40.00
2024-03-03T08:03:13.777Z,23.58
2024-03-03T08:05:40.813Z,26.83
2024-03-03T08:08:07.900Z,31.00
2024-03-03T08:10:34.992Z,35.75
2024-03-03T08:13:02.249Z,30.98
2024-03-03T08:15:34.540Z,33.88
2024-03-03T08:18:02.612Z,34.92
2024-03-03T08:20:29.940Z,31.02
2024-03-03T08:22:57.159Z,32.67
2024-03-03T08:25:25.792Z,38.90
2024-03-03T08:27:53.742Z,35.65
2024-03-03T08:30:21.167Z,37.60
2024-03-03T08:32:48.290Z,30.25
2024-03-03T08:35:15.742Z,29.75
2024-03-03T08:37:45.796Z,30.52
2024-03-03T08:40:13.193Z,33.65
2024-03-03T08:42:40.251Z,31.85
2024-03-03T08:45:08.435Z,32.30
2024-03-03T08:47:36.126Z,27.58
2024-03-03T08:50:05.392Z,31.25
2024-03-03T08:52:32.492Z,33.47
2024-03-03T08:54:59.538Z,30.05
2024-03-03T08:57:26.759Z,25.95
2024-03-03T08:59:53.853Z,27.25
2024-03-03T09:02:20.801Z,25.50
2024-03-03T09:04:48.294Z,25.58
2024-03-03T09:07:15.469Z,22.23
2024-03-03T09:09:44.340Z,26.33
2024-03-03T09:12:12.834Z,21.63
2024-03-03T09:14:39.982Z,20.38
2024-03-03T09:17:06.985Z,24.45
2024-03-03T09:19:34.035Z,22.05
2024-03-03T09:22:01.247Z,19.88
2024-03-03T09:24:28.300Z,23.92
2024-03-03T09:26:55.252Z,20.10
2024-03-03T09:29:25.109Z,18.90
2024-03-03T09:31:55.784Z,21.65
2024-03-03T09:34:23.380Z,25.70
2024-03-03T09:36:50.727Z,17.52
2024-03-03T09:39:18.271Z,15.93
2024-03-03T09:41:45.256Z,15.32
2024-03-03T09:44:18.405Z,14.10
2024-03-03T09:46:47.976Z,11.10
2024-03-03T09:49:20.227Z,16.13
2024-03-03T09:51:49.498Z,9.73
2024-03-03T09:54:20.057Z,14.25
2024-03-03T09:56:49.493Z,6.50
2024-03-03T09:59:17.089Z,7.22
2024-03-03T10:01:56.860Z,7.28
2024-03-03T10:04:24.612Z,6.82
2024-03-03T10:06:53.711Z,9.75
2024-03-03T10:09:20.839Z,6.82
2024-03-03T10:11:49.170Z,7.95
2024-03-03T10:14:18.748Z,5.28
2024-03-03T10:16:45.705Z,4.30
2024-03-03T10:19:12.725Z,6.75
2024-03-03T10:21:40.582Z,5.82
2024-03-03T10:24:27.126Z,6.78
2024-03-03T10:26:55.931Z,7.18
2024-03-03T10:29:28.313Z,4.88
2024-03-03T10:31:56.393Z,5.95
2024-03-03T10:34:24.374Z,5.32
2024-03-03T10:37:03.913Z,6.93
2024-03-03T10:39:38.398Z,4.35
2024-03-03T10:42:10.366Z,3.05
2024-03-03T10:47:12.178Z,3.95
2024-03-03T10:49:42.707Z,4.35
2024-03-03T10:52:11.679Z,2.47
2024-03-03T10:54:40.375Z,3.72
2024-03-03T10:57:11.001Z,4.88
2024-03-03T10:59:42.596Z,3.92
2024-03-03T11:02:15.469Z,2.03
2024-03-03T11:04:43.945Z,3.38
2024-03-03T11:07:12.465Z,3.42
2024-03-03T11:09:40.036Z,2.42
2024-03-03T11:12:08.351Z,2.90
2024-03-03T11:14:49.161Z,3.05
2024-03-03T11:17:20.927Z,2.95
2024-03-03T11:19:50.631Z,1.52
2024-03-03T11:22:26.156Z,2.83
2024-03-03T11:25:04.042Z,2.58
2024-03-03T11:27:31.412Z,4.50
2024-03-03T11:29:59.156Z,2.83
2024-03-03T11:32:31.526Z,1.90
2024-03-03T11:34:59.724Z,2.67
2024-03-03T11:37:29.050Z,2.65
2024-03-03T11:39:58.091Z,4.72
2024-03-03T11:42:34.314Z,2.90
2024-03-03T11:45:03.089Z,4.07
2024-03-03T11:47:46.988Z,4.53
2024-03-03T11:50:22.841Z,5.90
2024-03-03T11:52:51.167Z,4.22
2024-03-03T11:55:27.540Z,3.70
2024-03-03T11:58:00.599Z,3.67
2024-03-03T12:00:29.681Z,2.85
2024-03-03T12:02:59.510Z,3.13
2024-03-03T12:05:27.680Z,3.10
2024-03-03T12:07:56.623Z,2.67
2024-03-03T12:10:33.966Z,3.13
2024-03-03T12:13:03.030Z,2.30
2024-03-03T12:15:31.103Z,3.58
2024-03-03T12:18:00.318Z,3.17
2024-03-03T12:20:30.067Z,3.95
2024-03-03T12:22:57.994Z,2.67
2024-03-03T12:25:26.608Z,2.53
2024-03-03T12:27:57.297Z,3.40
2024-03-03T12:30:33.744Z,4.30
2024-03-03T12:33:02.740Z,3.10
2024-03-03T12:35:29.826Z,3.17
2024-03-03T12:37:56.824Z,2.70
2024-03-03T12:40:31.015Z,3.90
2024-03-03T12:42:58.977Z,2.15
2024-03-03T12:45:26.120Z,1.67
2024-03-03T12:47:53.291Z,1.70
2024-03-03T12:50:21.107Z,2.47
2024-03-03T12:52:49.329Z,2.70
2024-03-03T12:55:16.957Z,2.30
2024-03-03T12:57:45.369Z,1.55
2024-03-03T13:00:16.950Z,4.68
2024-03-03T13:02:45.537Z,2.22
2024-03-03T13:05:15.524Z,2.03
2024-03-03T13:07:52.867Z,1.70
2024-03-03T13:10:25.324Z,1.50
2024-03-03T13:12:57.121Z,1.52
2024-03-03T13:15:29.027Z,4.03
2024-03-03T13:18:14.614Z,1.27
2024-03-03T13:20:42.636Z,1.33
2024-03-03T13:23:20.552Z,4.30
2024-03-03T13:25:47.963Z,1.80
2024-03-03T13:28:17.060Z,2.40
2024-03-03T13:30:58.248Z,0.90
2024-03-03T13:33:32.642Z,3.35
2024-03-03T13:36:01.910Z,2.35
2024-03-03T13:38:29.243Z,2.75
2024-03-03T13:40:56.247Z,2.10
2024-03-03T13:43:23.570Z,0.88
2024-03-03T13:45:51.079Z,4.22
2024-03-03T13:48:18.148Z,1.35
2024-03-03T13:50:45.201Z,0.88
2024-03-03T13:53:12.718Z,0.98
2024-03-03T13:55:39.818Z,2.80
2024-03-03T13:58:08.057Z,1.83
2024-03-03T14:00:37.065Z,2.72
2024-03-03T14:03:29.686Z,2.15
2024-03-03T14:08:23.716Z,1.55
2024-03-03T14:10:50.805Z,1.20
2024-03-03T14:13:17.820Z,0.88
2024-03-03T14:15:44.926Z,1.38
2024-03-03T14:18:12.209Z,1.80
2024-03-03T14:20:39.565Z,2.25
2024-03-03T14:23:06.789Z,1.65
2024-03-03T14:25:33.857Z,2.20
2024-03-03T14:28:09.020Z,1.10
2024-03-03T14:30:41.317Z,2.03
2024-03-03T14:33:08.364Z,3.15
2024-03-03T14:35:35.261Z,0.90
2024-03-03T14:38:02.500Z,1.15
2024-03-03T14:40:48.243Z,2.63
2024-03-03T14:43:15.370Z,1.20
2024-03-03T14:45:42.709Z,0.60
2024-03-03T14:48:09.791Z,1.13
2024-03-03T14:50:36.824Z,1.92
2024-03-03T14:53:07.470Z,1.25
2024-03-03T14:55:34.933Z,1.25
2024-03-03T14:58:05.132Z,2.78
2024-03-03T15:00:33.282Z,0.90
2024-03-03T15:03:00.326Z,0.90
2024-03-03T15:05:27.226Z,3.83
2024-03-03T15:07:54.271Z,1.25
2024-03-03T15:10:21.527Z,0.95
2024-03-03T15:12:48.607Z,1.13
2024-03-03T15:15:15.607Z,1.50
2024-03-03T15:17:42.595Z,1.00
2024-03-03T15:20:15.966Z,1.40
2024-03-03T15:22:43.080Z,2.50
2024-03-03T15:25:10.231Z,1.73
2024-03-03T15:27:38.116Z,1.33
2024-03-03T15:30:06.650Z,2.38
2024-03-03T15:32:33.594Z,3.13
2024-03-03T15:35:01.041Z,1.90
2024-03-03T15:37:28.211Z,1.50
2024-03-03T15:39:55.334Z,1.58
2024-03-03T15:42:22.447Z,3.53
2024-03-03T15:44:49.510Z,3.53
2024-03-03T15:47:16.714Z,6.50
2024-03-03T15:49:43.613Z,1.55
2024-03-03T15:52:11.236Z,1.38
2024-03-03T15:54:38.226Z,1.48
2024-03-03T15:57:06.765Z,1.35
2024-03-03T15:59:33.745Z,1.30
2024-03-03T16:02:02.918Z,2.35
2024-03-03T16:04:30.443Z,0.73
2024-03-03T16:06:58.769Z,2.20
2024-03-03T16:09:26.530Z,2.15
2024-03-03T16:11:54.322Z,4.35
2024-03-03T16:14:21.385Z,2.33
2024-03-03T16:16:48.474Z,2.50
2024-03-03T16:19:15.513Z,2.00
2024-03-03T16:21:43.868Z,1.75
2024-03-03T16:24:10.904Z,4.55
2024-03-03T16:26:39.326Z,2.63
2024-03-03T16:29:06.378Z,5.63
2024-03-03T16:31:34.282Z,4.25
2024-03-03T16:34:01.374Z,3.65
2024-03-03T16:36:28.487Z,6.20
2024-03-03T16:38:55.445Z,4.80
2024-03-03T16:41:22.518Z,4.13
2024-03-03T16:43:49.520Z,6.47
2024-03-03T16:46:16.737Z,5.85
2024-03-03T16:48:43.996Z,8.30
2024-03-03T16:51:11.058Z,7.22
2024-03-03T16:53:38.065Z,5.25
2024-03-03T16:56:06.588Z,6.95
2024-03-03T16:58:33.926Z,7.07
2024-03-03T17:01:03.130Z,4.68
2024-03-03T17:03:32.240Z,5.50
2024-03-03T17:05:59.456Z,5.20
2024-03-03T17:08:26.603Z,3.55
2024-03-03T17:10:53.727Z,4.03
2024-03-03T17:13:20.838Z,6.88
2024-03-03T17:15:47.999Z,5.40
2024-03-03T17:18:15.199Z,4.35
2024-03-03T17:20:42.457Z,8.38
2024-03-03T17:23:11.298Z,7.47
2024-03-03T17:25:38.361Z,9.05
2024-03-03T17:28:05.886Z,8.15
2024-03-03T17:30:32.896Z,7.38
2024-03-03T17:32:59.872Z,7.75
2024-03-03T17:35:26.956Z,8.18
2024-03-03T17:37:53.949Z,6.43
2024-03-03T17:40:21.108Z,6.70
2024-03-03T17:42:48.172Z,7.93
2024-03-03T17:45:15.489Z,6.78
2024-03-03T17:47:42.607Z,4.90
2024-03-03T17:50:09.959Z,4.75
2024-03-03T17:52:37.314Z,4.63
2024-03-03T17:55:05.289Z,5.38
2024-03-03T17:57:33.467Z,4.72
2024-03-03T18:00:01.999Z,6.88
2024-03-03T18:02:29.415Z,5.13
2024-03-03T18:04:56.396Z,7.57
2024-03-03T18:07:24.248Z,5.13
2024-03-03T18:09:51.350Z,5.47
2024-03-03T18:12:18.498Z,5.70
2024-03-03T18:14:45.592Z,5.43
2024-03-03T18:17:12.547Z,6.38
2024-03-03T18:19:40.016Z,5.22
2024-03-03T18:22:07.130Z,5.28
2024-03-03T18:24:34.643Z,9.23
2024-03-03T18:27:01.746Z,8.48
2024-03-03T18:29:31.750Z,8.07
2024-03-03T18:31:59.398Z,4.85
2024-03-03T18:34:26.487Z,6.20
2024-03-03T18:36:54.885Z,7.75
2024-03-03T18:39:24.821Z,5.63
2024-03-03T18:41:52.260Z,5.45
2024-03-03T18:44:20.062Z,10.88
2024-03-03T18:46:47.192Z,7.65
2024-03-03T18:49:14.481Z,3.80
2024-03-03T18:51:43.337Z,7.80
2024-03-03T18:54:10.432Z,7.32
2024-03-03T18:56:37.490Z,5.10
2024-03-03T18:59:04.498Z,8.30
2024-03-03T19:01:33.835Z,8.65
2024-03-03T19:04:01.692Z,11.82
2024-03-03T19:06:29.196Z,4.28
2024-03-03T19:08:57.004Z,6.13
2024-03-03T19:11:24.044Z,4.97
2024-03-03T19:13:53.469Z,6.28
2024-03-03T19:16:20.460Z,4.53
2024-03-03T19:18:47.830Z,5.85
2024-03-03T19:21:16.104Z,7.57
2024-03-03T19:23:43.166Z,6.50
2024-03-03T19:26:10.504Z,4.45
2024-03-03T19:28:38.700Z,4.80
2024-03-03T19:31:05.970Z,3.75
2024-03-03T19:33:33.292Z,8.55
2024-03-03T19:36:01.357Z,5.70
2024-03-03T19:38:29.835Z,6.65
2024-03-03T19:40:57.774Z,4.20
2024-03-03T19:43:25.643Z,4.07
2024-03-03T19:45:53.049Z,4.50
2024-03-03T19:48:20.745Z,4.45
2024-03-03T19:50:47.909Z,7.35
2024-03-03T19:53:15.218Z,4.65
2024-03-03T19:55:43.968Z,6.80
2024-03-03T19:58:10.996Z,3.97
2024-03-03T20:02:57.520Z,4.88
2024-03-03T20:05:24.658Z,4.30
2024-03-03T20:07:51.732Z,7.05
2024-03-03T20:10:20.389Z,6.95
2024-03-03T20:12:47.404Z,4.50
2024-03-03T20:15:14.462Z,5.50
2024-03-03T20:17:41.496Z,6.43
2024-03-03T20:20:10.783Z,7.18
2024-03-03T20:22:38.535Z,3.92
2024-03-03T20:25:06.408Z,6.07
2024-03-03T20:27:34.102Z,4.38
2024-03-03T20:30:01.427Z,5.40
2024-03-03T20:32:28.612Z,8.10
2024-03-03T20:34:57.962Z,4.63
2024-03-03T20:37:25.442Z,3.05
2024-03-03T20:39:53.875Z,3.35
2024-03-03T20:42:21.128Z,7.47
2024-03-03T20:44:48.358Z,4.80
2024-03-03T20:47:15.356Z,5.00
2024-03-03T20:49:42.361Z,4.05
2024-03-03T20:52:09.395Z,6.30
2024-03-03T20:54:36.481Z,5.65
2024-03-03T20:57:09.609Z,12.48
2024-03-03T20:59:36.884Z,8.38
2024-03-03T21:02:05.502Z,7.28
2024-03-03T21:04:33.788Z,9.30
2024-03-03T21:07:01.535Z,4.95
2024-03-03T21:09:32.823Z,4.50
2024-03-03T21:11:59.773Z,5.53
2024-03-03T21:14:27.885Z,5.00
2024-03-03T21:16:54.863Z,6.78
2024-03-03T21:19:21.901Z,8.90
2024-03-03T21:21:49.352Z,14.80
2024-03-03T21:24:16.630Z,23.77
2024-03-03T21:26:47.089Z,14.90
2024-03-03T21:29:14.168Z,13.38
2024-03-03T21:31:41.323Z,22.92
2024-03-03T21:34:08.398Z,13.50
2024-03-03T21:36:35.895Z,32.13
2024-03-03T21:39:02.922Z,24.95
2024-03-03T21:41:29.872Z,6.72
2024-03-03T21:43:56.851Z,15.13
2024-03-03T21:46:25.712Z,9.93
2024-03-03T21:48:53.093Z,10.32
2024-03-03T21:51:20.161Z,11.45
2024-03-03T21:53:50.856Z,9.70
2024-03-03T21:56:18.372Z,22.58
2024-03-03T21:58:46.289Z,17.25
2024-03-03T22:01:13.990Z,14.60
2024-03-03T22:03:41.052Z,7.22
2024-03-03T22:06:08.079Z,7.22
2024-03-03T22:08:35.073Z,10.85
2024-03-03T22:11:02.089Z,3.28
2024-03-03T22:13:29.182Z,6.80
2024-03-03T22:15:56.173Z,7.95
2024-03-03T22:18:23.538Z,16.17
2024-03-03T22:20:50.463Z,21.33
2024-03-03T22:23:17.419Z,14.02
2024-03-03T22:25:44.547Z,6.40
2024-03-03T22:28:11.610Z,30.77
2024-03-03T22:30:39.984Z,24.02
2024-03-03T22:33:06.966Z,7.00
2024-03-03T22:35:33.911Z,8.77
2024-03-03T22:38:01.041Z,8.30
2024-03-03T22:40:30.633Z,13.73
2024-03-03T22:42:58.405Z,10.02
2024-03-03T22:45:28.505Z,6.40
2024-03-03T22:47:55.529Z,11.70
2024-03-03T22:50:23.278Z,10.93
2024-03-03T22:52:50.236Z,11.57
2024-03-03T22:55:17.218Z,10.57
2024-03-03T22:57:44.286Z,8.57
2024-03-03T23:00:14.683Z,20.08
2024-03-03T23:02:41.923Z,25.52
2024-03-03T23:05:09.261Z,21.90
2024-03-03T23:07:36.383Z,18.45
2024-03-03T23:10:03.892Z,17.15
2024-03-03T23:12:31.021Z,15.43
2024-03-03T23:14:57.946Z,20.05
2024-03-03T23:17:24.998Z,19.48
2024-03-03T23:19:51.985Z,23.75
2024-03-03T23:22:19.589Z,22.60
2024-03-03T23:24:46.885Z,17.20
2024-03-03T23:27:13.874Z,17.17
2024-03-03T23:29:40.815Z,19.23
2024-03-03T23:32:07.991Z,12.52
2024-03-03T23:34:35.053Z,16.15
2024-03-03T23:37:13.280Z,15.23
2024-03-03T23:39:46.326Z,16.15
2024-03-03T23:42:13.837Z,12.85
2024-03-03T23:44:40.917Z,12.13
2024-03-03T23:47:07.891Z,10.85
2024-03-03T23:49:35.258Z,7.95
2024-03-03T23:52:02.313Z,9.55
2024-03-03T23:54:29.233Z,9.93
2024-03-03T23:56:56.612Z,9.02
2024-03-03T23:59:23.533Z,8.35
